Time;durP1;ratioP1;P1;durP2;ratioP2;P2;SDS_P1;SDS_P2;PMS_P1;PMS_P2;Temp;Humidity;BMP_temperature;BMP_pressure;BME280_temperature;BME280_humidity;BME280_pressure;Samples;Min_cycle;Max_cycle;Signal;HPM_P1;HPM_P2
2022/11/09 00:01:31;;;;;;;415.27;26.25;;;4.90;99.90;;;;;;5073649;28;20107;-51
2022/11/09 00:03:59;;;;;;;462.45;27.08;;;4.90;99.90;;;;;;5073996;28;20071;-50
2022/11/09 00:06:26;;;;;;;328.58;23.65;;;4.90;99.90;;;;;;5073676;28;20119;-53
2022/11/09 00:08:52;;;;;;;328.17;23.00;;;4.90;99.90;;;;;;5073698;28;20513;-50
2022/11/09 00:11:19;;;;;;;191.20;19.00;;;4.90;99.90;;;;;;5073395;28;20069;-51
2022/11/09 00:13:45;;;;;;;322.88;21.45;;;5.00;99.90;;;;;;5073211;28;20062;-49
2022/11/09 00:16:16;;;;;;;320.90;20.73;;;4.90;99.90;;;;;;5073335;28;20056;-50
2022/11/09 00:18:46;;;;;;;287.20;19.88;;;5.00;99.90;;;;;;5073603;28;20576;-53
2022/11/09 00:21:14;;;;;;;241.90;19.35;;;5.00;99.90;;;;;;5073633;28;20028;-50
2022/11/09 00:23:40;;;;;;;433.90;27.48;;;4.90;99.90;;;;;;5073468;28;20090;-51
2022/11/09 00:26:08;;;;;;;304.02;20.92;;;5.00;99.90;;;;;;5073641;28;20033;-49
2022/11/09 00:28:34;;;;;;;371.20;24.67;;;4.90;99.90;;;;;;5073435;28;20107;-52
2022/11/09 00:31:01;;;;;;;126.53;16.42;;;5.00;99.90;;;;;;5073360;28;20033;-51
2022/11/09 00:33:27;;;;;;;299.40;22.63;;;5.00;99.90;;;;;;5072074;28;20027;-52
2022/11/09 00:35:53;;;;;;;340.80;22.38;;;5.00;99.90;;;;;;5072030;28;20025;-52
2022/11/09 00:38:18;;;;;;;193.90;19.42;;;5.00;99.90;;;;;;5073337;28;20020;-52
2022/11/09 00:40:44;;;;;;;238.75;19.02;;;5.00;99.90;;;;;;5073196;28;20024;-50
2022/11/09 00:43:10;;;;;;;405.25;26.95;;;5.10;99.90;;;;;;5073103;28;20116;-53
2022/11/09 00:45:35;;;;;;;494.10;26.85;;;5.10;99.90;;;;;;5072931;28;20472;-50
2022/11/09 00:48:02;;;;;;;526.13;28.80;;;5.00;99.90;;;;;;5073190;28;20021;-50
2022/11/09 00:50:29;;;;;;;466.05;26.88;;;5.00;99.90;;;;;;5072810;28;20111;-50
2022/11/09 00:52:54;;;;;;;438.20;24.88;;;5.00;99.90;;;;;;5073059;28;20025;-50
2022/11/09 00:55:20;;;;;;;344.92;21.73;;;5.00;99.90;;;;;;5072964;28;20039;-50
2022/11/09 00:57:52;;;;;;;317.35;22.05;;;5.00;99.90;;;;;;5072837;28;20028;-51
2022/11/09 01:00:23;;;;;;;275.90;20.35;;;5.00;99.90;;;;;;5072932;28;20035;-51
2022/11/09 01:02:49;;;;;;;241.27;22.15;;;5.00;99.90;;;;;;5071474;28;20704;-51
2022/11/09 01:05:15;;;;;;;462.20;25.88;;;5.10;99.90;;;;;;5072447;28;20052;-50
2022/11/09 01:07:41;;;;;;;317.23;22.83;;;5.10;99.90;;;;;;5072784;28;20121;-50
2022/11/09 01:10:07;;;;;;;453.15;27.05;;;5.10;99.90;;;;;;5072596;28;20020;-50
2022/11/09 01:12:33;;;;;;;372.00;23.42;;;5.10;99.90;;;;;;5072359;28;20032;-50
2022/11/09 01:14:58;;;;;;;275.27;20.60;;;5.00;99.90;;;;;;5072513;28;20484;-50
2022/11/09 01:17:24;;;;;;;503.55;26.00;;;5.00;99.90;;;;;;5072252;28;20032;-50
2022/11/09 01:19:50;;;;;;;470.95;26.42;;;5.00;99.90;;;;;;5072410;28;20020;-51
2022/11/09 01:22:17;;;;;;;343.52;21.58;;;4.90;99.90;;;;;;5072433;28;20147;-50
2022/11/09 01:24:43;;;;;;;487.70;25.98;;;5.00;99.90;;;;;;5072316;28;20024;-50
2022/11/09 01:27:09;;;;;;;396.48;21.35;;;4.90;99.90;;;;;;5072254;28;20219;-51
2022/11/09 01:29:35;;;;;;;475.75;26.23;;;4.90;99.90;;;;;;5072040;28;20024;-51
2022/11/09 01:32:00;;;;;;;355.23;21.80;;;4.90;99.90;;;;;;5070665;28;20051;-51
2022/11/09 01:34:29;;;;;;;399.60;24.88;;;4.90;99.90;;;;;;5072108;28;20042;-52
2022/11/09 01:36:55;;;;;;;303.27;20.65;;;5.00;99.90;;;;;;5072165;28;20029;-49
2022/11/09 01:39:21;;;;;;;294.48;20.48;;;5.00;99.90;;;;;;5072035;28;20382;-53
2022/11/09 01:41:47;;;;;;;329.20;20.55;;;5.00;99.90;;;;;;5071930;28;20024;-53
2022/11/09 01:44:16;;;;;;;315.45;21.73;;;5.00;99.90;;;;;;5072086;28;20062;-51
2022/11/09 01:46:55;;;;;;;189.35;16.83;;;5.00;99.90;;;;;;5072020;28;20060;-52
2022/11/09 01:49:45;;;;;;;66.75;14.55;;;5.00;99.90;;;;;;5071938;28;20477;-54
2022/11/09 01:52:27;;;;;;;454.95;25.42;;;5.00;99.90;;;;;;5071859;28;20103;-51
2022/11/09 01:55:02;;;;;;;412.40;23.52;;;5.00;99.90;;;;;;5071980;28;20028;-50
2022/11/09 01:57:55;;;;;;;231.57;19.05;;;5.00;99.90;;;;;;5071754;28;20031;-51
2022/11/09 02:00:21;;;;;;;266.63;19.87;;;5.00;99.90;;;;;;5070409;28;20505;-50
2022/11/09 02:02:53;;;;;;;400.13;22.65;;;5.10;99.90;;;;;;5071649;28;20028;-50
2022/11/09 02:05:22;;;;;;;184.68;17.77;;;5.10;99.90;;;;;;5071738;28;20036;-50
2022/11/09 02:07:49;;;;;;;335.08;22.02;;;5.10;99.90;;;;;;5071471;28;20112;-52
2022/11/09 02:10:39;;;;;;;233.20;17.92;;;5.10;99.90;;;;;;5071666;28;20024;-51
2022/11/09 02:13:08;;;;;;;245.15;19.13;;;5.10;99.90;;;;;;5071690;28;20021;-51
2022/11/09 02:15:35;;;;;;;208.65;17.25;;;5.00;99.90;;;;;;5071412;28;20052;-50
2022/11/09 02:18:02;;;;;;;341.00;20.95;;;5.10;99.90;;;;;;5070895;28;20025;-51
2022/11/09 02:20:28;;;;;;;302.20;21.83;;;5.10;99.90;;;;;;5071420;28;20029;-51
2022/11/09 02:22:54;;;;;;;359.60;23.13;;;5.00;99.90;;;;;;5071743;28;20036;-51
2022/11/09 02:25:20;;;;;;;344.88;22.17;;;5.00;99.90;;;;;;5071432;28;20028;-49
2022/11/09 02:27:45;;;;;;;171.82;16.23;;;5.00;99.90;;;;;;5071374;28;20031;-51
2022/11/09 02:30:12;;;;;;;413.27;24.33;;;5.10;99.90;;;;;;5071374;28;20032;-50
2022/11/09 02:32:38;;;;;;;419.35;25.75;;;5.10;99.90;;;;;;5071352;28;20020;-50
2022/11/09 02:35:04;;;;;;;385.45;24.73;;;5.10;99.90;;;;;;5071485;28;20020;-50
2022/11/09 02:37:55;;;;;;;253.13;21.15;;;5.10;99.90;;;;;;5071191;28;20029;-50
2022/11/09 02:40:27;;;;;;;243.48;20.05;;;5.10;99.90;;;;;;5070409;28;20059;-50
2022/11/09 02:42:53;;;;;;;289.33;20.73;;;5.20;99.90;;;;;;5070423;28;20029;-49
2022/11/09 02:45:19;;;;;;;184.93;19.50;;;5.20;99.90;;;;;;5070714;28;20388;-51
2022/11/09 02:47:44;;;;;;;437.20;24.70;;;5.20;99.90;;;;;;5070485;28;20037;-51
2022/11/09 02:50:10;;;;;;;363.67;23.90;;;5.20;99.90;;;;;;5070216;28;20037;-50
2022/11/09 02:55:57;;;;;;;241.52;18.80;;;5.20;99.90;;;;;;5071477;28;20024;-52
2022/11/09 02:58:23;;;;;;;130.00;16.67;;;5.20;99.90;;;;;;5071035;28;20020;-50
2022/11/09 03:00:48;;;;;;;225.38;20.30;;;5.10;99.90;;;;;;5071122;28;20081;-51
2022/11/09 03:03:14;;;;;;;287.02;21.55;;;5.10;99.90;;;;;;5071141;28;20460;-50
2022/11/09 03:05:42;;;;;;;238.15;19.33;;;5.10;99.90;;;;;;5071131;28;20036;-51
2022/11/09 03:08:08;;;;;;;265.05;19.52;;;5.20;99.90;;;;;;5070854;28;20033;-51
2022/11/09 03:10:34;;;;;;;300.85;21.20;;;5.20;99.90;;;;;;5070723;28;20024;-51
2022/11/09 03:12:59;;;;;;;305.92;21.30;;;5.10;99.90;;;;;;5071057;28;20051;-53
2022/11/09 03:15:25;;;;;;;339.13;22.83;;;5.20;99.90;;;;;;5070751;28;20035;-50
2022/11/09 03:17:50;;;;;;;411.08;24.17;;;5.20;99.90;;;;;;5071130;28;20086;-51
2022/11/09 03:20:16;;;;;;;499.20;24.48;;;5.10;99.90;;;;;;5071097;28;20025;-51
2022/11/09 03:22:42;;;;;;;298.13;20.42;;;5.10;99.90;;;;;;5070792;28;21388;-50
2022/11/09 03:25:08;;;;;;;228.90;19.55;;;5.10;99.90;;;;;;5070935;28;20086;-52
2022/11/09 03:27:33;;;;;;;171.95;15.82;;;5.10;99.90;;;;;;5069692;28;20027;-50
2022/11/09 03:29:59;;;;;;;60.58;12.15;;;5.00;99.90;;;;;;5074379;28;20115;-51
2022/11/09 03:32:25;;;;;;;62.00;10.82;;;5.00;99.90;;;;;;5074499;28;20027;-51
2022/11/09 03:34:50;;;;;;;174.77;14.95;;;5.00;99.90;;;;;;5074544;28;20077;-50
2022/11/09 03:37:17;;;;;;;90.30;12.43;;;5.00;99.90;;;;;;5074420;28;20043;-50
2022/11/09 03:39:42;;;;;;;231.07;17.35;;;5.10;99.90;;;;;;5074218;28;20722;-50
2022/11/09 03:42:08;;;;;;;110.38;14.10;;;5.10;99.90;;;;;;5074359;28;20033;-51
2022/11/09 03:44:33;;;;;;;422.83;22.20;;;5.00;99.90;;;;;;5074104;28;20025;-49
2022/11/09 03:46:59;;;;;;;276.85;19.10;;;5.00;99.90;;;;;;5074354;28;20027;-50
2022/11/09 03:49:25;;;;;;;93.38;12.68;;;4.90;99.90;;;;;;5074157;28;20057;-51
2022/11/09 03:51:50;;;;;;;312.50;20.90;;;4.90;99.90;;;;;;5074279;28;20025;-51
2022/11/09 03:54:16;;;;;;;118.82;13.70;;;5.00;99.90;;;;;;5074077;28;20352;-51
2022/11/09 03:56:42;;;;;;;367.85;22.48;;;5.00;99.90;;;;;;5073870;28;20021;-50
2022/11/09 03:59:07;;;;;;;382.65;21.27;;;5.00;99.90;;;;;;5074134;28;20024;-49
2022/11/09 04:01:33;;;;;;;298.35;19.65;;;4.90;99.90;;;;;;5073852;28;20640;-50
2022/11/09 04:03:58;;;;;;;325.60;21.02;;;4.90;99.90;;;;;;5074017;28;20028;-52
2022/11/09 04:06:24;;;;;;;93.70;15.52;;;4.90;99.90;;;;;;5073797;28;20028;-51
2022/11/09 04:08:50;;;;;;;215.30;15.45;;;4.90;99.90;;;;;;5073792;28;20535;-51
2022/11/09 04:11:16;;;;;;;377.88;20.58;;;4.90;99.90;;;;;;5073744;28;20024;-50
2022/11/09 04:13:42;;;;;;;282.08;16.08;;;4.90;99.90;;;;;;5073555;28;20166;-50
2022/11/09 04:16:07;;;;;;;400.58;21.15;;;4.80;99.90;;;;;;5073782;28;20495;-51
2022/11/09 04:18:33;;;;;;;148.02;13.50;;;4.80;99.90;;;;;;5073650;28;20448;-50
2022/11/09 04:20:59;;;;;;;215.63;14.38;;;4.80;99.90;;;;;;5073785;28;20090;-50
2022/11/09 04:23:24;;;;;;;366.42;19.90;;;4.80;99.90;;;;;;5073430;28;20025;-51
2022/11/09 04:25:50;;;;;;;188.32;15.60;;;4.80;99.90;;;;;;5073592;28;20025;-49
2022/11/09 04:28:16;;;;;;;143.13;14.40;;;4.80;99.90;;;;;;5073518;28;20456;-50
2022/11/09 04:30:42;;;;;;;142.73;15.40;;;4.80;99.90;;;;;;5073260;28;20033;-50
2022/11/09 04:33:08;;;;;;;340.15;20.75;;;4.90;99.90;;;;;;5073611;28;20482;-51
2022/11/09 04:35:34;;;;;;;385.13;22.98;;;4.90;99.90;;;;;;5073274;28;20025;-51
2022/11/09 04:38:05;;;;;;;195.60;16.17;;;4.90;99.90;;;;;;5073266;28;20082;-50
2022/11/09 04:40:32;;;;;;;116.03;15.65;;;5.00;99.90;;;;;;5072519;28;20027;-50
2022/11/09 04:42:59;;;;;;;111.13;13.02;;;5.00;99.90;;;;;;5071914;28;20391;-49
2022/11/09 04:45:25;;;;;;;124.70;14.52;;;5.00;99.90;;;;;;5073024;28;20112;-50
2022/11/09 04:47:55;;;;;;;218.02;15.73;;;5.00;99.90;;;;;;5073239;28;20107;-49
2022/11/09 04:50:21;;;;;;;56.72;12.98;;;4.90;99.90;;;;;;5072797;28;20487;-50
2022/11/09 04:52:46;;;;;;;116.88;13.95;;;4.90;99.90;;;;;;5072935;28;20035;-51
2022/11/09 04:55:12;;;;;;;153.98;14.10;;;4.90;99.90;;;;;;5073030;28;20073;-50
2022/11/09 04:57:38;;;;;;;197.27;15.75;;;4.90;99.90;;;;;;5072683;28;20635;-51
2022/11/09 05:00:04;;;;;;;55.83;11.40;;;4.90;99.90;;;;;;5072857;28;20460;-50
2022/11/09 05:02:29;;;;;;;400.13;20.40;;;4.90;99.90;;;;;;5072753;28;20032;-50
2022/11/09 05:04:55;;;;;;;228.43;14.13;;;4.80;99.90;;;;;;5072824;28;20039;-50
2022/11/09 05:07:21;;;;;;;226.40;14.80;;;4.80;99.90;;;;;;5072697;28;20032;-51
2022/11/09 05:09:46;;;;;;;91.88;13.18;;;4.80;99.90;;;;;;5072323;28;20048;-51
2022/11/09 05:12:12;;;;;;;52.30;10.50;;;4.80;99.90;;;;;;5072579;28;20028;-50
2022/11/09 05:14:38;;;;;;;48.65;9.13;;;4.70;99.90;;;;;;5072488;28;20059;-49
2022/11/09 05:17:03;;;;;;;32.10;9.18;;;4.70;99.90;;;;;;5072500;28;20124;-51
2022/11/09 05:19:29;;;;;;;87.20;9.68;;;4.70;99.90;;;;;;5070998;28;20476;-49
2022/11/09 05:21:54;;;;;;;52.20;9.77;;;4.70;99.90;;;;;;5072464;28;20024;-51
2022/11/09 05:24:20;;;;;;;122.25;12.05;;;4.80;99.90;;;;;;5072376;28;20566;-50
2022/11/09 05:26:46;;;;;;;169.10;13.82;;;4.80;99.90;;;;;;5072097;28;20028;-51
2022/11/09 05:29:12;;;;;;;221.63;15.93;;;4.80;99.90;;;;;;5072324;28;20013;-51
2022/11/09 05:31:39;;;;;;;123.45;13.98;;;4.60;99.90;;;;;;5070830;28;20597;-52
2022/11/09 05:34:05;;;;;;;73.53;11.40;;;4.70;99.90;;;;;;5072193;28;20027;-49
2022/11/09 05:36:34;;;;;;;127.47;12.32;;;4.70;99.90;;;;;;5072139;28;20056;-50
2022/11/09 05:39:00;;;;;;;65.43;12.88;;;4.60;99.90;;;;;;5072167;28;20111;-55
2022/11/09 05:41:26;;;;;;;199.57;17.33;;;4.70;99.90;;;;;;5071969;28;20183;-51
2022/11/09 05:43:52;;;;;;;94.03;14.65;;;4.60;99.90;;;;;;5072079;28;20115;-50
2022/11/09 05:46:18;;;;;;;125.65;12.88;;;4.60;99.90;;;;;;5072081;28;20536;-51
2022/11/09 05:48:44;;;;;;;92.53;12.15;;;4.70;99.90;;;;;;5071856;28;20040;-50
2022/11/09 05:51:11;;;;;;;61.03;11.80;;;4.70;99.90;;;;;;5071030;28;20383;-51
2022/11/09 05:53:38;;;;;;;99.57;14.20;;;4.60;99.90;;;;;;5071308;28;20122;-50
2022/11/09 06:20:19;;;;;;;21.17;13.25;;;4.60;99.90;;;;;;5116504;27;20395;-51
2022/11/09 06:22:51;;;;;;;29.90;15.30;;;4.60;99.90;;;;;;5109129;28;20063;-51
2022/11/09 06:25:17;;;;;;;77.10;12.02;;;4.60;99.90;;;;;;5103818;28;20016;-50
2022/11/09 06:27:42;;;;;;;14.38;10.23;;;4.70;99.90;;;;;;5111605;28;20032;-51
2022/11/09 06:30:08;;;;;;;148.57;16.15;;;4.70;99.90;;;;;;5110364;28;20032;-52
2022/11/09 06:32:34;;;;;;;86.85;11.45;;;4.70;99.90;;;;;;5107505;28;20024;-49
2022/11/09 06:35:00;;;;;;;247.43;15.23;;;4.70;99.90;;;;;;5110571;28;20080;-50
2022/11/09 06:37:26;;;;;;;360.38;112.90;;;4.70;99.90;;;;;;5108441;28;20032;-50
2022/11/09 06:39:52;;;;;;;192.02;28.70;;;4.70;99.90;;;;;;5108670;28;20050;-50
2022/11/09 06:42:17;;;;;;;84.03;14.23;;;4.70;99.90;;;;;;5108702;28;20020;-51
2022/11/09 06:44:43;;;;;;;197.98;16.42;;;4.70;99.90;;;;;;5108534;28;20048;-51
2022/11/09 06:47:08;;;;;;;134.82;13.43;;;4.70;99.90;;;;;;5109746;28;20434;-53
2022/11/09 06:49:34;;;;;;;136.68;13.10;;;4.70;99.90;;;;;;5109635;28;20053;-50
2022/11/09 06:51:59;;;;;;;101.43;13.65;;;4.60;99.90;;;;;;5108534;28;20020;-50
2022/11/09 06:54:26;;;;;;;114.63;14.35;;;4.60;99.90;;;;;;5108124;28;20051;-51
2022/11/09 06:56:53;;;;;;;77.28;12.98;;;4.60;99.90;;;;;;5108564;28;20381;-51
2022/11/09 06:59:19;;;;;;;140.23;14.70;;;4.70;99.90;;;;;;5108236;28;20030;-50
2022/11/09 07:01:45;;;;;;;61.55;13.43;;;4.60;99.90;;;;;;5110216;28;20023;-50
2022/11/09 07:04:13;;;;;;;80.55;13.10;;;4.70;99.90;;;;;;5109533;28;20478;-51
2022/11/09 07:06:40;;;;;;;16.48;10.45;;;4.70;99.90;;;;;;5109112;28;20016;-50
2022/11/09 07:09:05;;;;;;;79.55;11.32;;;4.70;99.90;;;;;;5108191;28;20028;-51
2022/11/09 07:11:31;;;;;;;81.45;12.00;;;4.70;99.90;;;;;;5107431;28;20097;-50
2022/11/09 07:13:57;;;;;;;16.48;9.85;;;4.80;99.90;;;;;;5108416;28;20626;-52
2022/11/09 07:16:26;;;;;;;21.67;9.05;;;4.80;99.90;;;;;;5107795;28;20028;-52
2022/11/09 07:18:52;;;;;;;13.88;8.93;;;4.90;99.90;;;;;;5109648;28;20047;-51
2022/11/09 07:21:18;;;;;;;20.58;9.73;;;5.10;99.90;;;;;;5098056;28;20031;-50
2022/11/09 07:23:47;;;;;;;41.95;9.93;;;5.10;99.90;;;;;;5097061;28;20054;-54
2022/11/09 07:26:12;;;;;;;58.33;11.38;;;5.10;99.90;;;;;;5096315;28;20020;-55
2022/11/09 07:28:38;;;;;;;48.72;12.18;;;5.00;99.90;;;;;;5094902;28;20031;-51
2022/11/09 07:31:04;;;;;;;24.25;10.80;;;5.00;99.90;;;;;;5094178;28;20153;-51
2022/11/09 07:33:32;;;;;;;81.13;11.52;;;5.00;99.90;;;;;;5094612;28;20024;-50
2022/11/09 07:36:01;;;;;;;66.60;13.38;;;5.00;99.90;;;;;;5092599;28;20020;-50
2022/11/09 07:38:28;;;;;;;40.17;11.98;;;5.10;99.90;;;;;;5093801;28;20109;-50
2022/11/09 07:40:56;;;;;;;57.42;12.15;;;5.00;99.90;;;;;;5093397;28;20028;-52
2022/11/09 07:43:27;;;;;;;22.75;11.02;;;5.10;99.90;;;;;;5094051;28;20024;-50
2022/11/09 07:45:53;;;;;;;42.88;11.75;;;5.10;99.90;;;;;;5094295;28;20028;-51
2022/11/09 07:48:19;;;;;;;48.90;11.88;;;5.10;99.90;;;;;;5095824;28;20089;-57
2022/11/09 07:50:44;;;;;;;29.95;13.68;;;5.10;99.90;;;;;;5094156;28;20020;-51
2022/11/09 07:53:13;;;;;;;25.33;11.80;;;5.20;99.90;;;;;;5093362;28;20059;-52
2022/11/09 07:55:40;;;;;;;38.72;13.40;;;5.30;99.90;;;;;;5093135;28;20009;-51
2022/11/09 07:58:12;;;;;;;62.97;13.32;;;5.30;99.90;;;;;;5093308;28;20360;-51
2022/11/09 08:00:39;;;;;;;31.17;12.25;;;5.30;99.90;;;;;;5092745;28;20058;-51
2022/11/09 08:03:05;;;;;;;112.93;14.27;;;5.20;99.90;;;;;;5097071;28;20028;-51
2022/11/09 08:05:32;;;;;;;98.95;13.05;;;5.30;99.90;;;;;;5094697;28;20108;-50
2022/11/09 08:08:00;;;;;;;96.65;15.23;;;5.40;99.90;;;;;;5092985;28;20032;-52
2022/11/09 08:10:30;;;;;;;125.25;14.15;;;5.40;99.90;;;;;;5094391;28;20016;-53
2022/11/09 08:13:00;;;;;;;57.28;13.73;;;5.50;99.90;;;;;;5095154;28;20438;-50
2022/11/09 08:15:27;;;;;;;64.35;13.32;;;5.60;99.90;;;;;;5093759;28;20028;-51
2022/11/09 08:17:52;;;;;;;105.43;13.70;;;5.70;99.90;;;;;;5094458;28;20072;-53
2022/11/09 08:20:19;;;;;;;60.75;12.32;;;5.80;99.90;;;;;;5095350;28;20085;-53
2022/11/09 08:22:46;;;;;;;74.93;14.60;;;5.90;99.90;;;;;;5097910;28;20028;-52
2022/11/09 08:25:12;;;;;;;103.13;12.75;;;6.00;99.90;;;;;;5094167;28;20039;-51
2022/11/09 08:27:57;;;;;;;50.55;12.18;;;6.10;99.90;;;;;;5094816;28;20048;-60
2022/11/09 08:30:26;;;;;;;122.40;14.38;;;6.00;99.90;;;;;;5092528;28;20028;-60
2022/11/09 08:32:53;;;;;;;45.60;12.55;;;6.00;99.90;;;;;;5091071;28;20024;-60
2022/11/09 08:35:23;;;;;;;75.63;12.55;;;6.00;99.90;;;;;;5092572;28;20439;-60
2022/11/09 08:38:00;;;;;;;52.80;11.52;;;6.00;99.90;;;;;;5094079;28;20008;-60
2022/11/09 08:40:25;;;;;;;34.40;13.30;;;6.00;99.90;;;;;;5093147;28;20493;-59
2022/11/09 08:42:52;;;;;;;19.08;11.95;;;6.10;99.90;;;;;;5093788;28;20035;-60
2022/11/09 08:45:18;;;;;;;68.20;12.38;;;6.20;99.90;;;;;;5093004;28;20016;-63
2022/11/09 08:47:44;;;;;;;25.23;11.55;;;6.10;99.90;;;;;;5093180;28;20054;-60
2022/11/09 08:50:16;;;;;;;16.08;12.05;;;6.00;99.90;;;;;;5096090;28;20020;-60
2022/11/09 08:52:44;;;;;;;23.13;16.63;;;6.10;99.90;;;;;;5092895;28;20182;-59
2022/11/09 08:55:10;;;;;;;15.05;11.82;;;6.20;99.90;;;;;;5092985;28;20032;-59
2022/11/09 08:57:36;;;;;;;18.50;12.02;;;6.50;99.90;;;;;;5091640;28;20055;-61
2022/11/09 09:00:02;;;;;;;19.50;13.20;;;6.60;99.90;;;;;;5092732;28;20047;-60
2022/11/09 09:02:29;;;;;;;13.63;10.98;;;6.80;99.90;;;;;;5092723;28;20020;-60
2022/11/09 09:04:54;;;;;;;12.60;9.77;;;7.20;99.90;;;;;;5092714;28;20024;-60
2022/11/09 09:07:20;;;;;;;22.85;11.30;;;7.40;99.90;;;;;;5092747;28;20024;-61
2022/11/09 09:09:45;;;;;;;38.60;11.07;;;7.50;99.90;;;;;;5094310;28;20011;-61
2022/11/09 09:12:11;;;;;;;41.70;10.68;;;7.40;99.90;;;;;;5092527;28;20076;-59
2022/11/09 09:14:37;;;;;;;84.47;13.85;;;7.50;99.90;;;;;;5092697;28;20077;-60
2022/11/09 09:17:03;;;;;;;22.02;12.68;;;7.50;99.90;;;;;;5092519;28;20020;-60
2022/11/09 09:19:31;;;;;;;13.50;10.00;;;7.40;99.90;;;;;;5093947;28;20051;-60
2022/11/09 09:21:57;;;;;;;24.08;10.73;;;7.40;99.90;;;;;;5095409;28;20020;-60
2022/11/09 09:24:23;;;;;;;18.65;11.02;;;7.30;99.90;;;;;;5091413;28;20032;-51
2022/11/09 09:26:49;;;;;;;21.80;11.25;;;7.20;99.90;;;;;;5098556;28;20015;-53
2022/11/09 09:29:15;;;;;;;20.00;11.00;;;7.10;99.90;;;;;;5097472;28;20093;-52
2022/11/09 09:31:40;;;;;;;14.90;10.82;;;7.10;99.90;;;;;;5093826;28;20046;-55
2022/11/09 09:34:07;;;;;;;20.77;11.10;;;7.20;99.90;;;;;;5092802;28;20382;-56
2022/11/09 09:36:34;;;;;;;22.77;11.57;;;7.20;99.90;;;;;;5093692;28;20039;-53
2022/11/09 09:39:00;;;;;;;37.33;28.60;;;7.10;99.90;;;;;;5091508;28;20123;-54
2022/11/09 09:41:37;;;;;;;18.08;13.70;;;7.20;99.90;;;;;;5092673;28;20115;-52
2022/11/09 09:44:31;;;;;;;19.52;13.05;;;7.20;99.90;;;;;;5092493;28;20421;-53
2022/11/09 09:47:05;;;;;;;;;;;7.40;99.90;;;;;;5087185;28;20060;-54
2022/11/09 09:49:36;;;;;;;13.85;10.68;;;7.50;99.90;;;;;;5093679;28;19915;-55
2022/11/09 09:52:30;;;;;;;14.07;11.02;;;7.60;99.90;;;;;;5093462;28;20020;-52
2022/11/09 09:55:19;;;;;;;12.57;9.73;;;7.70;99.90;;;;;;5095179;28;20107;-51
2022/11/09 09:57:51;;;;;;;14.65;11.55;;;7.60;99.90;;;;;;5091906;28;20081;-54
2022/11/09 10:00:24;;;;;;;14.27;12.05;;;7.70;99.90;;;;;;5091325;28;20027;-54
2022/11/09 10:02:51;;;;;;;14.23;11.95;;;7.90;99.90;;;;;;5094695;28;20024;-58
2022/11/09 10:05:18;;;;;;;13.23;9.75;;;7.90;99.90;;;;;;5093542;28;20089;-52
2022/11/09 10:08:12;;;;;;;15.07;10.85;;;8.00;99.90;;;;;;5091177;28;20059;-55
2022/11/09 10:10:52;;;;;;;11.32;9.63;;;8.00;99.90;;;;;;5092907;28;20058;-55
2022/11/09 10:13:27;;;;;;;15.38;10.50;;;8.00;99.90;;;;;;5092202;28;20028;-54
2022/11/09 10:15:58;;;;;;;11.60;9.90;;;8.00;99.90;;;;;;5091924;28;20023;-51
2022/11/09 10:18:57;;;;;;;12.07;9.70;;;8.20;99.90;;;;;;5091127;28;20514;-53
2022/11/09 10:21:42;;;;;;;17.95;13.13;;;8.30;99.90;;;;;;5095479;28;20020;-52
2022/11/09 10:24:27;;;;;;;13.80;10.80;;;8.90;99.90;;;;;;5090353;28;20026;-51
2022/11/09 10:26:57;;;;;;;10.95;9.00;;;9.60;99.90;;;;;;5091912;28;20028;-54
2022/11/09 10:29:24;;;;;;;9.98;8.15;;;10.40;99.90;;;;;;5092710;28;20032;-49
2022/11/09 10:32:01;;;;;;;10.23;8.60;;;11.40;99.90;;;;;;5089050;28;20701;-52
2022/11/09 10:34:42;;;;;;;9.25;8.05;;;12.40;99.90;;;;;;5092309;28;20605;-53
2022/11/09 10:37:33;;;;;;;10.13;8.07;;;13.20;99.90;;;;;;5091545;28;20455;-52
2022/11/09 10:40:05;;;;;;;10.48;8.02;;;13.90;98.40;;;;;;5092839;28;20024;-54
2022/11/09 10:42:31;;;;;;;8.75;7.55;;;15.40;94.60;;;;;;5073527;28;20044;-59
2022/11/09 10:45:00;;;;;;;11.40;8.65;;;15.60;93.00;;;;;;5071045;28;20076;-52
2022/11/09 10:47:26;;;;;;;12.98;8.45;;;14.90;93.80;;;;;;5072282;28;20425;-55
2022/11/09 10:50:36;;;;;;;9.55;7.80;;;14.10;94.70;;;;;;5070276;28;20082;-56
2022/11/09 10:53:26;;;;;;;13.15;7.57;;;13.70;95.30;;;;;;5052986;28;20025;-53
2022/11/09 10:56:16;;;;;;;12.40;7.70;;;13.70;96.00;;;;;;5074004;28;20451;-53
2022/11/09 10:58:52;;;;;;;7.35;6.60;;;14.20;96.20;;;;;;5078023;28;20088;-55
2022/11/09 11:01:21;;;;;;;16.42;7.80;;;14.90;95.30;;;;;;5075533;28;20024;-53
2022/11/09 11:03:50;;;;;;;8.70;7.50;;;14.90;94.40;;;;;;5075417;28;20039;-52
2022/11/09 11:06:22;;;;;;;10.57;8.50;;;14.70;94.60;;;;;;5078208;28;20036;-53
2022/11/09 11:08:50;;;;;;;9.07;7.32;;;14.20;94.90;;;;;;5076287;28;20042;-52
2022/11/09 11:11:36;;;;;;;8.88;7.95;;;13.90;96.20;;;;;;5074474;28;20387;-54
2022/11/09 11:14:19;;;;;;;10.00;8.18;;;13.30;97.60;;;;;;5074324;28;20403;-55
2022/11/09 11:16:46;;;;;;;10.05;7.82;;;13.50;96.60;;;;;;5075883;28;20009;-51
2022/11/09 11:19:46;;;;;;;8.93;7.93;;;13.50;97.20;;;;;;5074146;28;20041;-51
2022/11/09 11:22:11;;;;;;;8.40;7.60;;;13.60;97.70;;;;;;5050864;28;20055;-51
2022/11/09 11:24:50;;;;;;;14.57;8.55;;;13.20;97.70;;;;;;5077902;28;20016;-54
2022/11/09 11:27:36;;;;;;;12.43;9.57;;;13.00;99.30;;;;;;5071964;28;20471;-51
2022/11/09 11:30:04;;;;;;;10.00;8.43;;;12.80;99.50;;;;;;5074558;28;20040;-52
2022/11/09 11:32:30;;;;;;;13.90;9.35;;;12.40;99.90;;;;;;5074981;28;20017;-52
2022/11/09 11:34:56;;;;;;;11.27;10.15;;;12.10;99.90;;;;;;5073426;28;20025;-51
2022/11/09 11:37:59;;;;;;;12.10;9.88;;;12.20;99.90;;;;;;5073424;28;20020;-53
2022/11/09 11:40:42;;;;;;;11.50;10.30;;;11.90;99.90;;;;;;5075393;28;20028;-50
2022/11/09 11:43:34;;;;;;;17.13;11.25;;;11.50;99.90;;;;;;5076944;28;20028;-51
2022/11/09 11:46:02;;;;;;;19.70;14.38;;;11.40;99.90;;;;;;5073699;28;20405;-53
2022/11/09 11:48:31;;;;;;;22.73;15.60;;;11.30;99.90;;;;;;5074811;28;20020;-53
2022/11/09 11:51:11;;;;;;;17.38;13.40;;;11.00;99.90;;;;;;5074160;28;20025;-52
2022/11/09 11:53:43;;;;;;;17.85;13.57;;;11.30;99.90;;;;;;5073535;28;20028;-55
2022/11/09 11:56:33;;;;;;;15.93;14.00;;;11.00;99.90;;;;;;5075375;28;20020;-55
2022/11/09 11:59:05;;;;;;;18.25;14.23;;;10.80;99.90;;;;;;5074343;28;20453;-53
2022/11/09 12:01:53;;;;;;;18.33;15.13;;;10.80;99.90;;;;;;5075926;28;20032;-55
2022/11/09 12:04:27;;;;;;;15.82;13.80;;;10.90;99.90;;;;;;5073790;28;20111;-55
2022/11/09 12:06:53;;;;;;;15.88;14.18;;;10.90;99.90;;;;;;5073941;28;20021;-53
2022/11/09 12:09:30;;;;;;;20.48;13.23;;;11.10;99.90;;;;;;5073926;28;20497;-53
2022/11/09 12:12:31;;;;;;;19.77;13.52;;;11.00;99.90;;;;;;5073813;28;20111;-52
2022/11/09 12:15:22;;;;;;;16.85;13.02;;;11.30;99.90;;;;;;5072074;28;20066;-56
2022/11/09 12:18:32;;;;;;;14.10;11.90;;;11.90;99.90;;;;;;5074379;28;20008;-54
2022/11/09 12:21:17;;;;;;;16.20;12.75;;;12.60;99.90;;;;;;5063687;28;20040;-56
2022/11/09 12:24:07;;;;;;;17.50;11.13;;;13.30;99.90;;;;;;5074345;28;20383;-54
2022/11/09 12:27:11;;;;;;;13.95;11.23;;;14.00;98.60;;;;;;5072940;28;20032;-52
2022/11/09 12:30:11;;;;;;;19.30;12.15;;;15.00;97.40;;;;;;5064968;28;20113;-53
2022/11/09 12:33:10;;;;;;;17.05;11.63;;;15.20;95.80;;;;;;5072654;28;20028;-55
2022/11/09 12:35:52;;;;;;;12.77;10.30;;;15.00;95.00;;;;;;5075897;28;20052;-55
2022/11/09 12:38:29;;;;;;;13.23;11.85;;;16.00;94.70;;;;;;5073814;28;20487;-51
2022/11/09 12:41:04;;;;;;;13.45;11.48;;;15.70;94.40;;;;;;5072441;28;20097;-51
2022/11/09 12:43:44;;;;;;;18.55;12.02;;;15.40;94.10;;;;;;5072382;28;20055;-54
2022/11/09 12:46:11;;;;;;;14.65;13.15;;;15.30;94.30;;;;;;5073679;28;20110;-55
2022/11/09 12:48:38;;;;;;;13.90;11.82;;;15.70;94.10;;;;;;5073326;28;20052;-54
2022/11/09 12:51:06;;;;;;;18.60;14.07;;;15.50;94.10;;;;;;5089048;28;20032;-55
2022/11/09 12:53:37;;;;;;;16.83;12.30;;;15.50;93.70;;;;;;5094081;28;20024;-56
2022/11/09 12:56:03;;;;;;;14.25;12.40;;;15.70;93.30;;;;;;5093265;28;20016;-55
2022/11/09 12:58:34;;;;;;;14.57;10.38;;;16.30;93.00;;;;;;5094328;28;20012;-53
2022/11/09 13:01:10;;;;;;;12.45;10.05;;;17.80;91.80;;;;;;5093805;28;20016;-51
2022/11/09 13:03:39;;;;;;;11.82;9.10;;;18.70;88.30;;;;;;5095328;28;20020;-55
2022/11/09 13:06:15;;;;;;;10.23;9.10;;;18.70;86.00;;;;;;5093074;28;20016;-53
2022/11/09 13:08:53;;;;;;;10.38;8.70;;;18.50;85.40;;;;;;5093108;28;20051;-55
2022/11/09 13:11:35;;;;;;;10.48;9.40;;;18.60;84.50;;;;;;5092989;28;20092;-54
2022/11/09 13:14:39;;;;;;;11.15;10.02;;;18.40;85.30;;;;;;5094139;28;20054;-56
2022/11/09 13:17:23;;;;;;;19.77;11.40;;;17.50;88.60;;;;;;5091320;28;20330;-55